createdAt,value
2023-05-09T00:00:00.214Z,3.30
2023-05-09T00:01:00.136Z,2.40
2023-05-09T00:02:00.281Z,2.40
2023-05-09T00:03:00.308Z,2.20
2023-05-09T00:04:00.160Z,2.00
2023-05-09T00:05:00.085Z,2.10
2023-05-09T00:06:00.113Z,2.50
2023-05-09T00:07:00.089Z,2.70
2023-05-09T00:08:00.129Z,2.20
2023-05-09T00:09:00.039Z,2.30
2023-05-09T00:10:00.050Z,2.60
2023-05-09T00:11:00.048Z,2.40
2023-05-09T00:12:00.070Z,2.30
2023-05-09T00:13:00.057Z,2.20
2023-05-09T00:14:00.006Z,2.20
2023-05-09T00:14:59.980Z,2.60
2023-05-09T00:15:59.971Z,2.10
2023-05-09T00:16:59.948Z,3.00
2023-05-09T00:18:07.706Z,2.60
2023-05-09T00:18:59.917Z,2.60
2023-05-09T00:19:59.905Z,2.20
2023-05-09T00:20:59.896Z,2.50
2023-05-09T00:21:59.885Z,2.40
2023-05-09T00:22:59.889Z,2.40
2023-05-09T00:23:59.861Z,2.30
2023-05-09T00:24:59.855Z,2.30
2023-05-09T00:25:59.847Z,2.80
2023-05-09T00:26:59.828Z,2.70
2023-05-09T00:27:59.876Z,3.40
2023-05-09T00:28:59.809Z,2.50
2023-05-09T00:29:59.796Z,2.30
2023-05-09T00:30:59.791Z,2.20
2023-05-09T00:31:59.857Z,2.50
2023-05-09T00:32:59.805Z,2.60
2023-05-09T00:33:59.745Z,2.30
2023-05-09T00:34:59.747Z,2.90
2023-05-09T00:35:59.755Z,2.40
2023-05-09T00:36:59.716Z,2.80
2023-05-09T00:37:59.713Z,2.20
2023-05-09T00:38:59.688Z,2.40
2023-05-09T00:39:59.684Z,2.30
2023-05-09T00:40:59.679Z,2.90
2023-05-09T00:41:59.666Z,2.50
2023-05-09T00:42:59.663Z,2.50
2023-05-09T00:43:59.637Z,2.40
2023-05-09T00:44:59.621Z,2.60
2023-05-09T00:45:59.636Z,2.20
2023-05-09T00:46:59.624Z,2.60
2023-05-09T00:47:59.702Z,2.70
2023-05-09T00:48:59.580Z,2.60
2023-05-09T00:49:59.563Z,2.80
2023-05-09T00:50:59.565Z,2.50
2023-05-09T00:51:59.542Z,3.20
2023-05-09T00:52:59.537Z,2.50
2023-05-09T00:53:59.544Z,2.80
2023-05-09T00:54:59.523Z,2.80
2023-05-09T00:55:59.498Z,2.50
2023-05-09T00:56:59.483Z,2.70
2023-05-09T00:57:59.486Z,2.70
2023-05-09T00:58:59.473Z,2.80
2023-05-09T00:59:59.460Z,2.30
2023-05-09T01:00:59.474Z,2.30
2023-05-09T01:01:59.449Z,2.70
2023-05-09T01:02:59.526Z,2.80
2023-05-09T01:03:59.426Z,2.90
2023-05-09T01:04:59.400Z,2.80
2023-05-09T01:05:59.395Z,2.60
2023-05-09T01:06:59.375Z,3.20
2023-05-09T01:07:59.370Z,2.80
2023-05-09T01:08:59.366Z,2.70
2023-05-09T01:09:59.343Z,2.90
2023-05-09T01:10:59.332Z,2.70
2023-05-09T01:11:59.326Z,2.90
2023-05-09T01:12:59.361Z,2.60
2023-05-09T01:13:59.314Z,2.80
2023-05-09T01:14:59.302Z,2.80
2023-05-09T01:15:59.310Z,2.50
2023-05-09T01:16:59.273Z,2.80
2023-05-09T01:17:59.317Z,2.80
2023-05-09T01:18:59.268Z,2.40
2023-05-09T01:19:59.238Z,2.70
2023-05-09T01:20:59.226Z,2.80
2023-05-09T01:21:59.214Z,2.70
2023-05-09T01:22:59.196Z,2.70
2023-05-09T01:23:59.203Z,2.80
2023-05-09T01:24:59.174Z,2.50
2023-05-09T01:25:59.175Z,2.90
2023-05-09T01:26:59.165Z,2.90
2023-05-09T01:27:59.153Z,2.60
2023-05-09T01:28:59.158Z,2.90
2023-05-09T01:29:59.126Z,2.90
2023-05-09T01:30:59.151Z,3.10
2023-05-09T01:31:59.127Z,2.80
2023-05-09T01:32:59.111Z,3.40
2023-05-09T01:33:59.110Z,3.10
2023-05-09T01:34:59.070Z,3.00
2023-05-09T01:35:59.063Z,2.90
2023-05-09T01:36:59.050Z,2.80
2023-05-09T01:37:59.042Z,3.10
2023-05-09T01:38:59.041Z,3.10
2023-05-09T01:39:59.037Z,3.00
2023-05-09T01:40:59.010Z,2.70
2023-05-09T01:41:58.998Z,2.80
2023-05-09T01:42:58.976Z,2.80
2023-05-09T01:43:59.015Z,2.90
2023-05-09T01:44:58.958Z,2.90
2023-05-09T01:45:58.954Z,3.20
2023-05-09T01:46:58.996Z,2.60
2023-05-09T01:47:59.031Z,2.90
2023-05-09T01:48:58.928Z,2.80
2023-05-09T01:49:58.905Z,3.40
2023-05-09T01:50:58.901Z,2.90
2023-05-09T01:51:58.879Z,3.30
2023-05-09T01:52:58.875Z,3.30
2023-05-09T01:53:58.874Z,3.80
2023-05-09T01:54:58.849Z,3.00
2023-05-09T01:55:58.833Z,3.00
2023-05-09T01:56:58.834Z,3.10
2023-05-09T01:57:58.835Z,3.20
2023-05-09T01:58:58.831Z,3.30
2023-05-09T01:59:58.796Z,3.30
2023-05-09T02:00:58.820Z,3.00
2023-05-09T02:01:58.835Z,3.30
2023-05-09T02:02:58.872Z,3.40
2023-05-09T02:03:58.773Z,2.90
2023-05-09T02:04:58.742Z,3.20
2023-05-09T02:05:58.734Z,2.70
2023-05-09T02:06:58.718Z,3.00
2023-05-09T02:07:58.706Z,3.10
2023-05-09T02:08:58.714Z,3.00
2023-05-09T02:09:58.689Z,3.00
2023-05-09T02:10:58.684Z,2.90
2023-05-09T02:11:58.665Z,3.40
2023-05-09T02:12:58.725Z,3.00
2023-05-09T02:13:58.655Z,3.20
2023-05-09T02:14:58.638Z,3.40
2023-05-09T02:15:58.628Z,3.00
2023-05-09T02:16:58.689Z,3.30
2023-05-09T02:17:58.680Z,3.40
2023-05-09T02:18:58.606Z,3.40
2023-05-09T02:19:58.589Z,3.30
2023-05-09T02:20:58.621Z,3.10
2023-05-09T02:21:58.561Z,3.40
2023-05-09T02:22:58.551Z,3.40
2023-05-09T02:23:58.562Z,3.50
2023-05-09T02:24:58.538Z,3.30
2023-05-09T02:25:58.561Z,3.10
2023-05-09T02:26:58.521Z,3.20
2023-05-09T02:27:58.494Z,3.60
2023-05-09T02:28:58.511Z,3.30
2023-05-09T02:29:58.476Z,2.80
2023-05-09T02:30:58.453Z,3.30
2023-05-09T02:31:58.523Z,3.30
2023-05-09T02:32:58.500Z,3.60
2023-05-09T02:33:58.466Z,3.30
2023-05-09T02:34:58.434Z,3.70
2023-05-09T02:35:58.401Z,3.30
2023-05-09T02:36:58.413Z,3.90
2023-05-09T02:37:58.397Z,3.40
2023-05-09T02:38:58.386Z,3.00
2023-05-09T02:39:58.355Z,3.30
2023-05-09T02:40:58.344Z,3.20
2023-05-09T02:41:58.341Z,3.20
2023-05-09T02:44:09.896Z,3.30
2023-05-09T02:45:10.867Z,3.90
2023-05-09T02:46:11.029Z,3.30
2023-05-09T02:47:10.856Z,3.90
2023-05-09T02:48:10.872Z,3.60
2023-05-09T02:49:16.790Z,3.90
2023-05-09T02:50:10.830Z,4.20
2023-05-09T02:51:10.815Z,3.60
2023-05-09T02:52:10.805Z,4.00
2023-05-09T02:53:10.790Z,3.50
2023-05-09T02:54:10.802Z,3.70
2023-05-09T02:55:10.787Z,3.80
2023-05-09T02:56:10.751Z,3.50
2023-05-09T02:57:10.739Z,3.20
2023-05-09T02:58:14.820Z,3.50
2023-05-09T02:59:10.740Z,4.30
2023-05-09T03:00:10.725Z,3.50
2023-05-09T03:01:10.741Z,3.70
2023-05-09T03:02:10.678Z,3.40
2023-05-09T03:03:10.810Z,3.80
2023-05-09T03:04:10.690Z,3.80
2023-05-09T03:05:10.660Z,4.00
2023-05-09T03:06:10.674Z,3.90
2023-05-09T03:07:10.627Z,3.70
2023-05-09T03:08:10.623Z,3.50
2023-05-09T03:09:10.632Z,3.80
2023-05-09T03:10:10.598Z,3.90
2023-05-09T03:11:10.582Z,3.60
2023-05-09T03:12:10.585Z,3.80
2023-05-09T03:13:10.593Z,3.90
2023-05-09T03:14:10.562Z,4.00
2023-05-09T03:15:10.544Z,3.50
2023-05-09T03:16:10.642Z,3.90
2023-05-09T03:17:10.526Z,3.50
2023-05-09T03:18:10.552Z,3.80
2023-05-09T03:19:10.508Z,3.60
2023-05-09T03:20:10.498Z,3.40
2023-05-09T03:21:10.476Z,3.60
2023-05-09T03:22:10.456Z,3.70
2023-05-09T03:23:10.453Z,4.00
2023-05-09T03:24:10.525Z,3.70
2023-05-09T03:25:10.445Z,3.80
2023-05-09T03:26:10.426Z,3.80
2023-05-09T03:29:49.199Z,4.20
2023-05-09T03:30:35.537Z,4.00
2023-05-09T03:31:36.169Z,4.00
2023-05-09T03:32:35.572Z,3.80
2023-05-09T03:33:35.501Z,4.20
2023-05-09T03:34:35.528Z,3.90
2023-05-09T03:35:35.487Z,3.80
2023-05-09T03:36:35.474Z,4.00
2023-05-09T03:37:35.463Z,3.90
2023-05-09T03:38:35.452Z,4.20
2023-05-09T03:39:35.451Z,4.30
2023-05-09T03:40:35.424Z,3.90
2023-05-09T03:41:35.416Z,4.40
2023-05-09T03:42:35.419Z,3.80
2023-05-09T03:43:35.384Z,4.00
2023-05-09T03:44:35.404Z,4.00
2023-05-09T03:45:35.369Z,4.10
2023-05-09T03:46:35.481Z,4.20
2023-05-09T03:47:35.395Z,4.40
2023-05-09T03:48:35.330Z,4.40
2023-05-09T03:49:35.364Z,4.20
2023-05-09T03:50:35.303Z,3.90
2023-05-09T03:51:35.316Z,4.10
2023-05-09T03:52:35.369Z,4.50
2023-05-09T03:53:35.309Z,4.40
2023-05-09T03:54:35.311Z,4.30
2023-05-09T03:55:35.260Z,4.40
2023-05-09T03:56:35.252Z,4.60
2023-05-09T03:57:35.250Z,4.10
2023-05-09T03:58:35.234Z,4.50
2023-05-09T03:59:35.240Z,4.60
2023-05-09T04:00:35.197Z,4.10
2023-05-09T04:01:35.259Z,4.40
2023-05-09T04:02:35.299Z,4.20
2023-05-09T04:03:35.235Z,4.40
2023-05-09T04:04:35.178Z,4.30
2023-05-09T04:05:35.702Z,4.00
2023-05-09T04:06:35.144Z,4.30
2023-05-09T04:07:35.124Z,4.60
2023-05-09T04:08:35.124Z,4.30
2023-05-09T04:09:35.120Z,4.50
2023-05-09T04:10:35.093Z,4.40
2023-05-09T04:11:35.082Z,4.30
2023-05-09T04:12:35.070Z,4.20
2023-05-09T04:13:35.082Z,4.50
2023-05-09T04:14:35.064Z,4.30
2023-05-09T04:15:35.033Z,4.20
2023-05-09T04:16:35.049Z,3.90
2023-05-09T04:17:35.040Z,4.50
2023-05-09T04:18:35.006Z,4.30
2023-05-09T04:19:35.004Z,4.20
2023-05-09T04:20:34.979Z,4.70
2023-05-09T04:21:34.995Z,4.80
2023-05-09T04:22:34.957Z,4.70
2023-05-09T04:23:34.938Z,4.90
2023-05-09T04:24:34.953Z,4.50
2023-05-09T04:25:34.922Z,4.60
2023-05-09T04:26:34.908Z,4.40
2023-05-09T04:27:34.911Z,5.00
2023-05-09T04:28:34.894Z,4.70
2023-05-09T04:29:34.876Z,4.80
2023-05-09T04:30:34.913Z,4.70
2023-05-09T04:31:34.935Z,4.80
2023-05-09T04:32:34.898Z,4.40
2023-05-09T04:33:34.838Z,4.70
2023-05-09T04:34:34.839Z,4.40
2023-05-09T04:35:34.832Z,4.20
2023-05-09T04:36:34.794Z,4.40
2023-05-09T04:37:34.796Z,4.10
2023-05-09T04:38:34.783Z,4.60
2023-05-09T04:39:34.762Z,4.30
2023-05-09T04:40:34.772Z,4.10
2023-05-09T04:41:34.744Z,4.70
2023-05-09T04:42:34.737Z,4.50
2023-05-09T04:43:34.719Z,4.60
2023-05-09T04:44:34.703Z,4.20
2023-05-09T04:45:34.727Z,4.70
2023-05-09T04:46:34.723Z,4.60
2023-05-09T04:47:34.699Z,4.50
2023-05-09T04:48:34.663Z,4.80
2023-05-09T04:49:34.658Z,4.70
2023-05-09T04:50:34.676Z,4.70
2023-05-09T04:51:34.642Z,5.20
2023-05-09T04:52:34.623Z,4.40
2023-05-09T04:53:34.607Z,4.90
2023-05-09T04:54:34.611Z,4.70
2023-05-09T04:55:34.605Z,4.80
2023-05-09T04:56:34.591Z,4.20
2023-05-09T04:57:34.561Z,4.70
2023-05-09T04:58:34.568Z,4.10
2023-05-09T04:59:34.545Z,4.90
2023-05-09T05:00:34.553Z,4.40
2023-05-09T05:01:34.586Z,4.40
2023-05-09T05:02:34.557Z,4.50
2023-05-09T05:03:34.498Z,5.10
2023-05-09T05:04:34.534Z,4.80
2023-05-09T05:05:37.012Z,4.50
2023-05-09T05:06:34.470Z,4.30
2023-05-09T05:07:34.463Z,4.20
2023-05-09T05:08:34.456Z,4.20
2023-05-09T05:09:34.439Z,4.60
2023-05-09T05:10:34.447Z,4.70
2023-05-09T05:11:34.446Z,4.60
2023-05-09T05:12:34.420Z,4.70
2023-05-09T05:13:34.391Z,4.90
2023-05-09T05:14:34.389Z,4.70
2023-05-09T05:15:34.385Z,4.80
2023-05-09T05:16:34.409Z,5.00
2023-05-09T05:17:34.377Z,4.80
2023-05-09T05:18:34.342Z,4.30
2023-05-09T05:19:34.338Z,4.50
2023-05-09T05:20:34.335Z,4.50
2023-05-09T05:21:34.308Z,4.10
2023-05-09T05:22:34.324Z,4.50
2023-05-09T05:23:34.294Z,4.70
2023-05-09T05:24:34.277Z,4.30
2023-05-09T05:25:34.276Z,4.20
2023-05-09T05:26:34.256Z,4.10
2023-05-09T05:27:34.251Z,4.30
2023-05-09T05:28:34.245Z,5.00
2023-05-09T05:29:34.224Z,4.40
2023-05-09T05:30:34.592Z,4.10
2023-05-09T05:31:34.252Z,4.50
2023-05-09T05:32:34.199Z,4.20
2023-05-09T05:33:34.177Z,4.80
2023-05-09T05:34:34.166Z,4.90
2023-05-09T05:35:34.180Z,4.60
2023-05-09T05:36:34.150Z,5.80
2023-05-09T05:37:34.292Z,5.50
2023-05-09T05:38:34.119Z,4.80
2023-05-09T05:39:34.132Z,4.70
2023-05-09T05:40:34.112Z,4.30
2023-05-09T05:41:34.098Z,4.40
2023-05-09T05:42:34.073Z,4.10
2023-05-09T05:43:34.066Z,4.30
2023-05-09T05:44:34.046Z,4.70
2023-05-09T05:45:34.075Z,4.40
2023-05-09T05:46:34.022Z,4.30
2023-05-09T05:47:34.043Z,4.50
2023-05-09T05:48:34.010Z,4.40
2023-05-09T05:49:33.989Z,4.60
2023-05-09T05:50:34.004Z,4.30
2023-05-09T05:51:33.967Z,4.40
2023-05-09T05:52:33.957Z,4.00
2023-05-09T05:53:33.942Z,4.60
2023-05-09T05:54:33.938Z,4.70
2023-05-09T05:55:33.928Z,4.50
2023-05-09T05:56:33.960Z,4.60
2023-05-09T05:57:33.899Z,4.40
2023-05-09T05:58:33.890Z,4.00
2023-05-09T05:59:33.866Z,4.10
2023-05-09T06:00:33.877Z,4.40
2023-05-09T06:01:33.851Z,4.40
2023-05-09T06:02:33.942Z,4.10
2023-05-09T06:03:33.879Z,4.10
2023-05-09T06:04:33.813Z,4.10
2023-05-09T06:05:33.818Z,3.90
2023-05-09T06:06:33.797Z,4.20
2023-05-09T06:07:33.792Z,4.60
2023-05-09T06:08:33.763Z,4.20
2023-05-09T06:09:33.755Z,4.30
2023-05-09T06:10:33.762Z,4.40
2023-05-09T06:11:33.743Z,4.10
2023-05-09T06:12:33.728Z,4.10
2023-05-09T06:13:33.719Z,3.80
2023-05-09T06:14:33.696Z,4.40
2023-05-09T06:15:33.713Z,4.30
2023-05-09T06:16:33.743Z,4.30
2023-05-09T06:17:33.746Z,4.40
2023-05-09T06:18:33.657Z,4.60
2023-05-09T06:19:33.649Z,4.70
2023-05-09T06:20:33.653Z,4.80
2023-05-09T06:21:33.623Z,4.50
2023-05-09T06:22:33.617Z,4.60
2023-05-09T06:23:33.611Z,4.30
2023-05-09T06:24:36.155Z,4.10
2023-05-09T06:25:33.625Z,4.40
2023-05-09T06:26:33.569Z,4.00
2023-05-09T06:27:33.554Z,4.30
2023-05-09T06:28:33.547Z,4.80
2023-05-09T06:29:33.537Z,4.40
2023-05-09T06:30:33.579Z,4.50
2023-05-09T06:31:33.593Z,4.70
2023-05-09T06:32:33.540Z,4.20
2023-05-09T06:33:33.488Z,4.40
2023-05-09T06:34:33.484Z,4.40
2023-05-09T06:35:33.482Z,4.20
2023-05-09T06:36:33.470Z,4.40
2023-05-09T06:37:33.447Z,4.30
2023-05-09T06:38:33.441Z,4.60
2023-05-09T06:39:33.431Z,4.10
2023-05-09T06:40:33.434Z,4.50
2023-05-09T06:41:33.449Z,4.50
2023-05-09T06:42:33.411Z,4.30
2023-05-09T06:43:33.395Z,4.70
2023-05-09T06:44:33.380Z,5.20
2023-05-09T06:45:33.446Z,4.50
2023-05-09T06:46:33.405Z,4.70
2023-05-09T06:47:33.397Z,4.40
2023-05-09T06:48:33.333Z,4.70
2023-05-09T06:49:33.325Z,4.40
2023-05-09T06:50:33.332Z,4.20
2023-05-09T06:51:34.241Z,4.30
2023-05-09T06:52:33.291Z,4.00
2023-05-09T06:53:33.278Z,4.30
2023-05-09T06:54:33.269Z,3.90
2023-05-09T06:55:33.274Z,4.50
2023-05-09T06:56:33.252Z,4.50
2023-05-09T06:57:33.240Z,4.20
2023-05-09T06:58:33.214Z,4.20
2023-05-09T06:59:33.214Z,4.50
2023-05-09T07:00:33.212Z,4.30
2023-05-09T07:01:33.217Z,4.40
2023-05-09T07:02:33.218Z,4.40
2023-05-09T07:03:33.161Z,4.40
2023-05-09T07:04:33.165Z,4.30
2023-05-09T07:05:33.235Z,4.30
2023-05-09T07:06:33.141Z,4.60
2023-05-09T07:07:33.120Z,4.20
2023-05-09T07:08:33.103Z,4.10
2023-05-09T07:09:33.094Z,4.60
2023-05-09T07:10:33.110Z,4.40
2023-05-09T07:11:33.076Z,4.20
2023-05-09T07:12:33.060Z,4.00
2023-05-09T07:13:33.054Z,4.10
2023-05-09T07:14:33.068Z,4.40
2023-05-09T07:15:41.125Z,4.00
2023-05-09T07:16:36.703Z,3.80
2023-05-09T07:17:34.065Z,4.30
2023-05-09T07:18:33.000Z,4.60
2023-05-09T07:19:37.018Z,4.10
2023-05-09T07:20:35.019Z,4.30
2023-05-09T07:21:33.013Z,4.30
2023-05-09T07:22:34.804Z,4.20
2023-05-09T07:23:32.956Z,4.60
2023-05-09T07:24:32.977Z,4.10
2023-05-09T07:25:32.939Z,4.00
2023-05-09T07:26:32.924Z,4.60
2023-05-09T07:27:32.905Z,4.40
2023-05-09T07:28:32.892Z,4.30
2023-05-09T07:29:32.894Z,4.00
2023-05-09T07:30:32.886Z,3.90
2023-05-09T07:31:35.215Z,4.30
2023-05-09T07:32:32.893Z,4.40
2023-05-09T07:33:32.847Z,4.10
2023-05-09T07:34:32.831Z,4.80
2023-05-09T07:35:32.825Z,4.20
2023-05-09T07:36:35.335Z,4.20
2023-05-09T07:37:32.787Z,4.20
2023-05-09T07:38:32.774Z,4.10
2023-05-09T07:39:32.781Z,4.70
2023-05-09T07:40:32.772Z,4.90
2023-05-09T07:41:32.744Z,4.00
2023-05-09T07:42:32.733Z,3.80
2023-05-09T07:43:32.717Z,4.20
2023-05-09T07:44:32.713Z,4.00
2023-05-09T07:45:32.755Z,4.10
2023-05-09T07:46:32.680Z,4.00
2023-05-09T07:47:32.684Z,4.20
2023-05-09T07:48:32.669Z,4.50
2023-05-09T07:49:32.649Z,4.10
2023-05-09T07:50:32.652Z,3.90
2023-05-09T07:51:32.627Z,4.20
2023-05-09T07:52:32.639Z,3.70
2023-05-09T07:53:32.625Z,4.00
2023-05-09T07:54:32.596Z,3.80
2023-05-09T07:55:32.585Z,4.10
2023-05-09T07:56:32.572Z,4.20
2023-05-09T07:57:32.552Z,4.30
2023-05-09T07:58:32.545Z,4.60
2023-05-09T07:59:32.540Z,4.10
2023-05-09T08:00:32.530Z,4.40
2023-05-09T08:01:32.558Z,4.30
2023-05-09T08:02:32.586Z,4.10
2023-05-09T08:03:32.587Z,4.00
2023-05-09T08:04:32.514Z,5.20
2023-05-09T08:05:32.485Z,4.00
2023-05-09T08:06:32.452Z,4.00
2023-05-09T08:07:32.450Z,4.50
2023-05-09T08:08:32.429Z,4.20
2023-05-09T08:09:32.425Z,4.10
2023-05-09T08:10:32.431Z,3.90
2023-05-09T08:11:32.391Z,4.50
2023-05-09T08:12:32.384Z,4.50
2023-05-09T08:13:32.457Z,4.20
2023-05-09T08:14:32.360Z,3.80
2023-05-09T08:15:32.371Z,4.30
2023-05-09T08:16:32.594Z,4.00
2023-05-09T08:17:32.365Z,4.20
2023-05-09T08:18:32.328Z,3.60
2023-05-09T08:19:32.311Z,4.10
2023-05-09T08:20:32.320Z,4.20
2023-05-09T08:21:32.293Z,4.60
2023-05-09T08:22:32.286Z,4.50
2023-05-09T08:23:32.272Z,3.90
2023-05-09T08:24:32.283Z,3.90
2023-05-09T08:25:32.376Z,4.20
2023-05-09T08:26:32.233Z,4.30
2023-05-09T08:27:32.240Z,4.00
2023-05-09T08:28:32.214Z,3.60
2023-05-09T08:29:32.249Z,3.90
2023-05-09T08:30:32.204Z,4.80
2023-05-09T08:31:32.254Z,4.00
2023-05-09T08:32:32.193Z,4.30
2023-05-09T08:33:32.157Z,3.60
2023-05-09T08:34:32.143Z,3.70
2023-05-09T08:35:32.154Z,4.70
2023-05-09T08:36:32.129Z,4.20
2023-05-09T08:37:32.131Z,3.60
2023-05-09T08:38:32.118Z,3.90
2023-05-09T08:39:32.094Z,4.10
2023-05-09T08:40:32.095Z,3.80
2023-05-09T08:41:32.071Z,4.20
2023-05-09T08:42:32.059Z,3.80
2023-05-09T08:43:32.114Z,3.90
2023-05-09T08:44:32.052Z,5.00
2023-05-09T08:45:32.089Z,3.90
2023-05-09T08:46:32.082Z,4.20
2023-05-09T08:47:32.080Z,4.30
2023-05-09T08:48:34.022Z,4.30
2023-05-09T08:49:32.030Z,4.20
2023-05-09T08:50:31.996Z,3.90
2023-05-09T08:51:31.970Z,4.20
2023-05-09T08:52:31.975Z,4.10
2023-05-09T08:53:31.952Z,4.10
2023-05-09T08:54:31.923Z,4.30
2023-05-09T08:55:31.965Z,4.50
2023-05-09T08:56:31.902Z,4.70
2023-05-09T08:57:31.989Z,4.10
2023-05-09T08:58:32.107Z,4.00
2023-05-09T08:59:31.880Z,4.10
2023-05-09T09:00:31.901Z,3.70
2023-05-09T09:01:31.890Z,3.80
2023-05-09T09:02:31.875Z,4.10
2023-05-09T09:03:31.853Z,4.20
2023-05-09T09:04:31.852Z,4.40
2023-05-09T09:05:41.458Z,4.30
2023-05-09T09:06:31.846Z,4.70
2023-05-09T09:07:31.791Z,3.80
2023-05-09T09:08:31.769Z,3.90
2023-05-09T09:09:31.763Z,3.90
2023-05-09T09:10:31.761Z,4.00
2023-05-09T09:11:32.211Z,3.50
2023-05-09T09:12:31.722Z,4.10
2023-05-09T09:13:31.791Z,3.80
2023-05-09T09:14:31.709Z,4.10
2023-05-09T09:15:31.711Z,3.80
2023-05-09T09:16:31.799Z,4.20
2023-05-09T09:17:31.723Z,4.60
2023-05-09T09:18:31.659Z,4.00
2023-05-09T09:19:31.671Z,4.10
2023-05-09T09:20:31.653Z,3.80
2023-05-09T09:21:31.628Z,3.70
2023-05-09T09:22:31.612Z,4.20
2023-05-09T09:23:31.610Z,3.70
2023-05-09T09:24:31.607Z,3.90
2023-05-09T09:25:31.596Z,3.90
2023-05-09T09:26:31.587Z,3.60
2023-05-09T09:27:31.567Z,3.70
2023-05-09T09:28:31.551Z,4.10
2023-05-09T09:29:31.548Z,3.80
2023-05-09T09:30:31.547Z,3.90
2023-05-09T09:31:31.578Z,3.90
2023-05-09T09:32:31.538Z,3.50
2023-05-09T09:33:31.680Z,3.20
2023-05-09T09:34:31.521Z,3.60
2023-05-09T09:35:31.473Z,3.60
2023-05-09T09:36:31.473Z,3.90
2023-05-09T09:37:31.474Z,3.90
2023-05-09T09:38:31.436Z,3.90
2023-05-09T09:39:31.424Z,4.00
2023-05-09T09:40:31.412Z,3.80
2023-05-09T09:41:31.420Z,3.90
2023-05-09T09:42:31.392Z,3.50
2023-05-09T09:43:31.382Z,3.50
2023-05-09T09:44:31.372Z,3.50
2023-05-09T09:45:31.363Z,3.40
2023-05-09T09:46:31.480Z,3.60
2023-05-09T09:47:31.460Z,3.60
2023-05-09T09:48:31.350Z,3.60
2023-05-09T09:49:31.317Z,3.80
2023-05-09T09:50:31.317Z,3.90
2023-05-09T09:51:31.309Z,3.60
2023-05-09T09:52:31.293Z,3.20
2023-05-09T09:53:31.277Z,4.00
2023-05-09T09:54:31.262Z,3.40
2023-05-09T09:55:31.244Z,3.70
2023-05-09T09:56:31.235Z,3.80
2023-05-09T09:57:31.332Z,3.30
2023-05-09T09:58:31.218Z,3.40
2023-05-09T09:59:31.208Z,3.50
2023-05-09T10:00:31.204Z,3.10
2023-05-09T10:01:31.242Z,3.40
2023-05-09T10:02:31.193Z,2.90
2023-05-09T10:03:31.177Z,3.30
2023-05-09T10:04:31.150Z,3.60
2023-05-09T10:05:31.152Z,3.70
2023-05-09T10:06:31.136Z,3.10
2023-05-09T10:07:31.115Z,3.00
2023-05-09T10:08:31.117Z,3.60
2023-05-09T10:09:31.107Z,3.20
2023-05-09T10:10:31.083Z,3.20
2023-05-09T10:11:31.079Z,3.30
2023-05-09T10:12:31.077Z,3.10
2023-05-09T10:13:31.073Z,3.40
2023-05-09T10:14:32.065Z,3.20
2023-05-09T10:15:38.502Z,3.10
2023-05-09T10:16:42.653Z,3.50
2023-05-09T10:17:31.129Z,3.20
2023-05-09T10:18:31.466Z,2.90
2023-05-09T10:19:30.983Z,2.80
2023-05-09T10:20:30.969Z,3.10
2023-05-09T10:21:30.984Z,3.00
2023-05-09T10:22:30.948Z,3.00
2023-05-09T10:23:30.961Z,2.80
2023-05-09T10:24:31.104Z,3.00
2023-05-09T10:25:30.919Z,2.90
2023-05-09T10:26:30.919Z,3.10
2023-05-09T10:27:30.924Z,3.00
2023-05-09T10:28:30.878Z,3.40
2023-05-09T10:29:30.876Z,2.80
2023-05-09T10:30:31.478Z,3.10
2023-05-09T10:31:30.904Z,2.70
2023-05-09T10:32:30.881Z,3.60
2023-05-09T10:33:30.847Z,2.90
2023-05-09T10:34:30.823Z,2.70
2023-05-09T10:35:30.797Z,3.00
2023-05-09T10:36:30.793Z,2.90
2023-05-09T10:37:31.636Z,2.90
2023-05-09T10:38:30.789Z,2.80
2023-05-09T10:39:30.760Z,2.90
2023-05-09T10:40:30.745Z,2.90
2023-05-09T10:41:30.731Z,2.90
2023-05-09T10:42:30.726Z,2.80
2023-05-09T10:43:32.078Z,3.10
2023-05-09T10:44:30.703Z,2.90
2023-05-09T10:45:30.695Z,3.00
2023-05-09T10:46:30.715Z,2.90
2023-05-09T10:47:30.737Z,2.80
2023-05-09T10:48:30.685Z,3.10
2023-05-09T10:49:30.651Z,2.80
2023-05-09T10:50:30.646Z,3.10
2023-05-09T10:51:30.629Z,3.40
2023-05-09T10:52:30.612Z,2.80
2023-05-09T10:53:30.626Z,3.10
2023-05-09T10:54:31.125Z,3.50
2023-05-09T10:55:30.587Z,2.80
2023-05-09T10:56:30.597Z,2.80
2023-05-09T10:57:30.686Z,2.50
2023-05-09T10:58:30.579Z,3.00
2023-05-09T10:59:30.537Z,3.20
2023-05-09T11:00:30.530Z,3.20
2023-05-09T11:01:30.537Z,2.60
2023-05-09T11:02:30.512Z,2.90
2023-05-09T11:03:30.625Z,2.50
2023-05-09T11:04:30.489Z,3.00
2023-05-09T11:05:30.477Z,2.90
2023-05-09T11:06:30.458Z,2.90
2023-05-09T11:07:30.463Z,2.60
2023-05-09T11:08:30.456Z,2.90
2023-05-09T11:09:30.433Z,2.70
2023-05-09T11:10:30.419Z,2.80
2023-05-09T11:11:30.414Z,2.90
2023-05-09T11:12:30.402Z,2.80
2023-05-09T11:13:30.483Z,2.80
2023-05-09T11:14:30.374Z,2.70
2023-05-09T11:15:30.374Z,2.90
2023-05-09T11:16:30.465Z,2.70
2023-05-09T11:17:30.408Z,2.90
2023-05-09T11:18:30.348Z,2.50
2023-05-09T11:19:30.321Z,2.40
2023-05-09T11:20:30.309Z,2.30
2023-05-09T11:21:30.303Z,2.60
2023-05-09T11:22:30.298Z,2.30
2023-05-09T11:23:30.292Z,2.90
2023-05-09T11:24:30.285Z,2.90
2023-05-09T11:25:30.263Z,2.40
2023-05-09T11:26:30.253Z,2.60
2023-05-09T11:27:30.235Z,2.50
2023-05-09T11:28:30.243Z,3.10
2023-05-09T11:29:30.211Z,2.80
2023-05-09T11:30:30.205Z,2.50
2023-05-09T11:31:30.243Z,2.60
2023-05-09T11:32:30.234Z,2.50
2023-05-09T11:33:30.250Z,2.50
2023-05-09T11:34:30.171Z,2.60
2023-05-09T11:35:30.178Z,2.80
2023-05-09T11:36:30.145Z,2.60
2023-05-09T11:37:30.134Z,2.70
2023-05-09T11:38:30.138Z,2.80
2023-05-09T11:39:30.117Z,2.70
2023-05-09T11:40:30.093Z,2.50
2023-05-09T11:41:30.094Z,2.60
2023-05-09T11:42:30.076Z,2.50
2023-05-09T11:43:30.072Z,2.50
2023-05-09T11:44:30.053Z,2.50
2023-05-09T11:45:30.050Z,2.60
2023-05-09T11:46:30.083Z,2.50
2023-05-09T11:47:30.109Z,2.80
2023-05-09T11:48:30.031Z,2.40
2023-05-09T11:49:29.990Z,2.50
2023-05-09T11:50:29.999Z,3.00
2023-05-09T11:51:29.978Z,2.50
2023-05-09T11:52:29.985Z,2.60
2023-05-09T11:53:29.972Z,2.50
2023-05-09T11:54:29.949Z,2.50
2023-05-09T11:55:30.006Z,2.80
2023-05-09T11:56:29.930Z,2.50
2023-05-09T11:57:29.913Z,2.70
2023-05-09T11:58:29.936Z,2.50
2023-05-09T11:59:29.883Z,2.70
2023-05-09T12:00:30.403Z,2.50
2023-05-09T12:01:29.859Z,2.50
2023-05-09T12:02:29.906Z,2.30
2023-05-09T12:03:29.997Z,2.60
2023-05-09T12:04:29.906Z,2.50
2023-05-09T12:05:29.828Z,2.50
2023-05-09T12:06:29.808Z,2.40
2023-05-09T12:07:29.802Z,2.60
2023-05-09T12:08:29.809Z,2.60
2023-05-09T12:09:29.777Z,2.50
2023-05-09T12:10:29.766Z,2.80
2023-05-09T12:11:29.754Z,2.50
2023-05-09T12:12:29.740Z,2.40
2023-05-09T12:13:29.924Z,2.60
2023-05-09T12:14:29.737Z,2.40
2023-05-09T12:15:29.709Z,2.90
2023-05-09T12:16:29.764Z,2.60
2023-05-09T12:17:29.715Z,2.80
2023-05-09T12:18:29.700Z,2.60
2023-05-09T12:19:29.679Z,3.00
2023-05-09T12:20:29.661Z,2.40
2023-05-09T12:21:29.656Z,2.80
2023-05-09T12:22:29.635Z,2.60
2023-05-09T12:23:29.636Z,2.90
2023-05-09T12:24:29.623Z,2.60
2023-05-09T12:25:29.604Z,2.80
2023-05-09T12:26:29.599Z,2.70
2023-05-09T12:27:29.576Z,3.00
2023-05-09T12:28:29.584Z,3.00
2023-05-09T12:29:29.550Z,3.40
2023-05-09T12:30:29.542Z,2.50
2023-05-09T12:31:29.590Z,3.10
2023-05-09T12:32:29.554Z,2.50
2023-05-09T12:33:29.529Z,2.80
2023-05-09T12:34:29.509Z,2.70
2023-05-09T12:35:29.489Z,2.60
2023-05-09T12:36:29.486Z,2.60
2023-05-09T12:37:29.467Z,2.30
2023-05-09T12:38:29.479Z,2.70
2023-05-09T12:39:29.441Z,2.70
2023-05-09T12:40:29.467Z,2.90
2023-05-09T12:41:37.133Z,2.50
2023-05-09T12:42:29.422Z,2.60
2023-05-09T12:43:29.415Z,2.50
2023-05-09T12:44:29.995Z,2.90
2023-05-09T12:45:29.382Z,3.00
2023-05-09T12:46:29.473Z,2.50
2023-05-09T12:47:29.454Z,2.50
2023-05-09T12:48:29.387Z,2.60
2023-05-09T12:49:29.346Z,2.70
2023-05-09T12:50:29.326Z,2.60
2023-05-09T12:51:29.320Z,2.80
2023-05-09T12:52:29.305Z,2.80
2023-05-09T12:53:29.321Z,2.70
2023-05-09T12:54:29.300Z,2.80
2023-05-09T12:55:29.305Z,3.20
2023-05-09T12:56:29.268Z,2.60
2023-05-09T12:57:31.436Z,2.80
2023-05-09T12:58:29.262Z,2.60
2023-05-09T12:59:29.231Z,2.80
2023-05-09T13:00:29.227Z,2.70
2023-05-09T13:01:29.436Z,3.00
2023-05-09T13:02:29.285Z,2.80
2023-05-09T13:03:29.309Z,2.70
2023-05-09T13:04:29.314Z,2.40
2023-05-09T13:05:29.178Z,2.80
2023-05-09T13:06:29.147Z,2.60
2023-05-09T13:07:29.159Z,2.70
2023-05-09T13:08:29.155Z,2.80
2023-05-09T13:09:29.121Z,2.80
2023-05-09T13:10:29.126Z,2.80
2023-05-09T13:11:29.137Z,3.00
2023-05-09T13:12:29.088Z,2.80
2023-05-09T13:13:29.122Z,2.80
2023-05-09T13:14:29.140Z,2.90
2023-05-09T13:15:29.061Z,3.40
2023-05-09T13:16:29.058Z,3.00
2023-05-09T13:17:29.055Z,3.10
2023-05-09T13:18:29.044Z,3.20
2023-05-09T13:19:29.009Z,2.70
2023-05-09T13:20:29.011Z,2.80
2023-05-09T13:21:28.995Z,3.60